sensor_id;sensor_type;location;lat;lon;timestamp;P1;durP1;ratioP1;P2;durP2;ratioP2
62050;SDS011;48008;51.204;6.766;2023-03-24T00:01:06;15.93;;;5.53;;
62050;SDS011;48008;51.204;6.766;2023-03-24T00:03:33;15.77;;;5.28;;
62050;SDS011;48008;51.204;6.766;2023-03-24T00:06:03;15.95;;;5.57;;
62050;SDS011;48008;51.204;6.766;2023-03-24T00:08:31;14.80;;;5.40;;
62050;SDS011;48008;51.204;6.766;2023-03-24T00:11:02;20.02;;;6.22;;
62050;SDS011;48008;51.204;6.766;2023-03-24T00:13:33;16.23;;;5.35;;
62050;SDS011;48008;51.204;6.766;2023-03-24T00:16:04;11.82;;;4.70;;
62050;SDS011;48008;51.204;6.766;2023-03-24T00:18:35;12.63;;;4.40;;
62050;SDS011;48008;51.204;6.766;2023-03-24T00:21:03;12.70;;;5.22;;
62050;SDS011;48008;51.204;6.766;2023-03-24T00:23:31;14.43;;;4.60;;
62050;SDS011;48008;51.204;6.766;2023-03-24T00:28:32;11.93;;;4.47;;
62050;SDS011;48008;51.204;6.766;2023-03-24T00:31:03;13.20;;;4.45;;
62050;SDS011;48008;51.204;6.766;2023-03-24T00:33:31;11.52;;;4.00;;
62050;SDS011;48008;51.204;6.766;2023-03-24T00:36:02;8.77;;;3.72;;
62050;SDS011;48008;51.204;6.766;2023-03-24T00:38:31;9.30;;;3.80;;
62050;SDS011;48008;51.204;6.766;2023-03-24T00:41:00;10.60;;;3.40;;
62050;SDS011;48008;51.204;6.766;2023-03-24T00:43:28;10.35;;;3.53;;
62050;SDS011;48008;51.204;6.766;2023-03-24T00:45:58;9.38;;;3.55;;
62050;SDS011;48008;51.204;6.766;2023-03-24T00:48:28;10.07;;;3.80;;
62050;SDS011;48008;51.204;6.766;2023-03-24T00:50:56;11.13;;;3.53;;
62050;SDS011;48008;51.204;6.766;2023-03-24T00:53:24;8.85;;;3.75;;
62050;SDS011;48008;51.204;6.766;2023-03-24T00:55:55;10.15;;;3.58;;
62050;SDS011;48008;51.204;6.766;2023-03-24T00:58:23;8.63;;;3.70;;
62050;SDS011;48008;51.204;6.766;2023-03-24T01:00:53;8.95;;;3.40;;
62050;SDS011;48008;51.204;6.766;2023-03-24T01:03:22;11.50;;;3.67;;
62050;SDS011;48008;51.204;6.766;2023-03-24T01:05:53;12.70;;;3.90;;
62050;SDS011;48008;51.204;6.766;2023-03-24T01:08:23;9.88;;;3.50;;
62050;SDS011;48008;51.204;6.766;2023-03-24T01:10:51;11.43;;;4.03;;
62050;SDS011;48008;51.204;6.766;2023-03-24T01:13:20;11.65;;;3.72;;
62050;SDS011;48008;51.204;6.766;2023-03-24T01:15:49;9.82;;;3.97;;
62050;SDS011;48008;51.204;6.766;2023-03-24T01:18:16;12.18;;;3.80;;
62050;SDS011;48008;51.204;6.766;2023-03-24T01:20:44;9.52;;;3.85;;
62050;SDS011;48008;51.204;6.766;2023-03-24T01:23:16;12.98;;;4.05;;
62050;SDS011;48008;51.204;6.766;2023-03-24T01:25:46;10.57;;;4.40;;
62050;SDS011;48008;51.204;6.766;2023-03-24T01:28:14;11.32;;;4.40;;
62050;SDS011;48008;51.204;6.766;2023-03-24T01:30:43;12.05;;;4.18;;
62050;SDS011;48008;51.204;6.766;2023-03-24T01:33:10;10.65;;;4.55;;
62050;SDS011;48008;51.204;6.766;2023-03-24T01:35:37;12.98;;;4.97;;
62050;SDS011;48008;51.204;6.766;2023-03-24T01:38:05;12.63;;;4.70;;
62050;SDS011;48008;51.204;6.766;2023-03-24T01:40:34;9.93;;;4.18;;
62050;SDS011;48008;51.204;6.766;2023-03-24T01:43:05;15.75;;;4.38;;
62050;SDS011;48008;51.204;6.766;2023-03-24T01:45:43;12.63;;;5.20;;
62050;SDS011;48008;51.204;6.766;2023-03-24T01:48:24;12.55;;;5.90;;
62050;SDS011;48008;51.204;6.766;2023-03-24T01:51:01;15.63;;;5.57;;
62050;SDS011;48008;51.204;6.766;2023-03-24T01:53:32;13.85;;;5.93;;
62050;SDS011;48008;51.204;6.766;2023-03-24T01:56:02;11.85;;;5.13;;
62050;SDS011;48008;51.204;6.766;2023-03-24T01:58:36;14.45;;;5.20;;
62050;SDS011;48008;51.204;6.766;2023-03-24T02:01:15;11.50;;;5.18;;
62050;SDS011;48008;51.204;6.766;2023-03-24T02:04:04;13.43;;;5.07;;
62050;SDS011;48008;51.204;6.766;2023-03-24T02:06:35;15.05;;;5.70;;
62050;SDS011;48008;51.204;6.766;2023-03-24T02:09:07;10.98;;;4.80;;
62050;SDS011;48008;51.204;6.766;2023-03-24T02:11:35;10.77;;;4.47;;
62050;SDS011;48008;51.204;6.766;2023-03-24T02:14:04;10.63;;;4.80;;
62050;SDS011;48008;51.204;6.766;2023-03-24T02:16:42;10.00;;;4.88;;
62050;SDS011;48008;51.204;6.766;2023-03-24T02:19:27;12.23;;;4.78;;
62050;SDS011;48008;51.204;6.766;2023-03-24T02:28:11;13.52;;;4.80;;
62050;SDS011;48008;51.204;6.766;2023-03-24T02:31:27;10.45;;;5.10;;
62050;SDS011;48008;51.204;6.766;2023-03-24T02:40:21;13.57;;;5.40;;
62050;SDS011;48008;51.204;6.766;2023-03-24T02:43:45;14.50;;;6.25;;
62050;SDS011;48008;51.204;6.766;2023-03-24T02:51:57;15.05;;;5.88;;
62050;SDS011;48008;51.204;6.766;2023-03-24T02:54:49;13.98;;;5.43;;
62050;SDS011;48008;51.204;6.766;2023-03-24T03:00:34;9.95;;;4.50;;
62050;SDS011;48008;51.204;6.766;2023-03-24T03:03:30;12.18;;;4.60;;
62050;SDS011;48008;51.204;6.766;2023-03-24T03:06:36;11.27;;;5.13;;
62050;SDS011;48008;51.204;6.766;2023-03-24T03:08:53;9.95;;;4.25;;
62050;SDS011;48008;51.204;6.766;2023-03-24T03:11:23;10.52;;;4.60;;
62050;SDS011;48008;51.204;6.766;2023-03-24T03:13:53;11.00;;;5.05;;
62050;SDS011;48008;51.204;6.766;2023-03-24T03:19:21;9.57;;;4.13;;
62050;SDS011;48008;51.204;6.766;2023-03-24T03:21:53;9.90;;;4.05;;
62050;SDS011;48008;51.204;6.766;2023-03-24T03:24:24;12.27;;;4.18;;
62050;SDS011;48008;51.204;6.766;2023-03-24T03:27:00;12.07;;;4.03;;
62050;SDS011;48008;51.204;6.766;2023-03-24T03:29:32;10.35;;;3.97;;
62050;SDS011;48008;51.204;6.766;2023-03-24T03:32:03;9.10;;;3.90;;
62050;SDS011;48008;51.204;6.766;2023-03-24T03:34:44;11.70;;;3.97;;
62050;SDS011;48008;51.204;6.766;2023-03-24T03:40:03;9.85;;;3.67;;
62050;SDS011;48008;51.204;6.766;2023-03-24T03:42:38;9.45;;;4.13;;
62050;SDS011;48008;51.204;6.766;2023-03-24T03:45:07;9.95;;;3.90;;
62050;SDS011;48008;51.204;6.766;2023-03-24T03:47:36;10.32;;;4.07;;
62050;SDS011;48008;51.204;6.766;2023-03-24T03:50:03;10.52;;;3.60;;
62050;SDS011;48008;51.204;6.766;2023-03-24T03:52:35;9.13;;;3.95;;
62050;SDS011;48008;51.204;6.766;2023-03-24T03:55:06;15.75;;;4.05;;
62050;SDS011;48008;51.204;6.766;2023-03-24T03:57:35;9.05;;;3.90;;
62050;SDS011;48008;51.204;6.766;2023-03-24T04:00:12;10.93;;;3.88;;
62050;SDS011;48008;51.204;6.766;2023-03-24T04:06:07;12.02;;;4.32;;
62050;SDS011;48008;51.204;6.766;2023-03-24T04:08:47;8.30;;;3.30;;
62050;SDS011;48008;51.204;6.766;2023-03-24T04:11:24;9.10;;;3.97;;
62050;SDS011;48008;51.204;6.766;2023-03-24T04:14:38;8.85;;;3.60;;
62050;SDS011;48008;51.204;6.766;2023-03-24T04:23:08;13.50;;;4.93;;
62050;SDS011;48008;51.204;6.766;2023-03-24T04:25:48;9.25;;;4.25;;
62050;SDS011;48008;51.204;6.766;2023-03-24T04:28:59;11.98;;;4.60;;
62050;SDS011;48008;51.204;6.766;2023-03-24T04:31:28;12.38;;;4.32;;
62050;SDS011;48008;51.204;6.766;2023-03-24T04:34:01;8.73;;;4.25;;
62050;SDS011;48008;51.204;6.766;2023-03-24T04:36:38;12.82;;;4.22;;
62050;SDS011;48008;51.204;6.766;2023-03-24T04:39:31;11.73;;;4.68;;
62050;SDS011;48008;51.204;6.766;2023-03-24T04:42:09;10.07;;;4.18;;
62050;SDS011;48008;51.204;6.766;2023-03-24T04:44:43;10.02;;;3.42;;
62050;SDS011;48008;51.204;6.766;2023-03-24T04:47:32;10.40;;;3.78;;
62050;SDS011;48008;51.204;6.766;2023-03-24T04:50:16;8.65;;;3.20;;
62050;SDS011;48008;51.204;6.766;2023-03-24T04:52:59;13.90;;;3.63;;
62050;SDS011;48008;51.204;6.766;2023-03-24T04:58:24;8.77;;;3.03;;
62050;SDS011;48008;51.204;6.766;2023-03-24T05:00:52;11.30;;;2.95;;
62050;SDS011;48008;51.204;6.766;2023-03-24T05:03:21;12.48;;;3.30;;
62050;SDS011;48008;51.204;6.766;2023-03-24T05:05:49;6.32;;;2.47;;
62050;SDS011;48008;51.204;6.766;2023-03-24T05:08:18;8.63;;;3.22;;
62050;SDS011;48008;51.204;6.766;2023-03-24T05:10:47;8.10;;;3.10;;
62050;SDS011;48008;51.204;6.766;2023-03-24T05:13:14;9.88;;;3.15;;
62050;SDS011;48008;51.204;6.766;2023-03-24T05:15:47;7.78;;;2.60;;
62050;SDS011;48008;51.204;6.766;2023-03-24T05:18:23;7.63;;;2.83;;
62050;SDS011;48008;51.204;6.766;2023-03-24T05:20:51;8.68;;;2.80;;
62050;SDS011;48008;51.204;6.766;2023-03-24T05:23:20;8.02;;;2.72;;
62050;SDS011;48008;51.204;6.766;2023-03-24T05:25:48;10.27;;;2.45;;
62050;SDS011;48008;51.204;6.766;2023-03-24T05:28:15;9.70;;;2.60;;
62050;SDS011;48008;51.204;6.766;2023-03-24T05:30:42;7.15;;;2.50;;
62050;SDS011;48008;51.204;6.766;2023-03-24T05:33:29;6.68;;;2.30;;
62050;SDS011;48008;51.204;6.766;2023-03-24T05:35:57;6.55;;;2.30;;
62050;SDS011;48008;51.204;6.766;2023-03-24T05:38:24;11.70;;;2.70;;
62050;SDS011;48008;51.204;6.766;2023-03-24T05:40:56;11.68;;;2.40;;
62050;SDS011;48008;51.204;6.766;2023-03-24T05:43:28;6.45;;;2.00;;
62050;SDS011;48008;51.204;6.766;2023-03-24T05:46:06;10.13;;;1.95;;
62050;SDS011;48008;51.204;6.766;2023-03-24T05:48:34;7.80;;;2.05;;
62050;SDS011;48008;51.204;6.766;2023-03-24T05:51:11;9.02;;;2.20;;
62050;SDS011;48008;51.204;6.766;2023-03-24T05:53:38;6.45;;;1.70;;
62050;SDS011;48008;51.204;6.766;2023-03-24T05:56:16;8.93;;;1.90;;
62050;SDS011;48008;51.204;6.766;2023-03-24T05:59:00;9.82;;;1.90;;
62050;SDS011;48008;51.204;6.766;2023-03-24T06:01:47;11.07;;;2.30;;
62050;SDS011;48008;51.204;6.766;2023-03-24T06:04:20;9.68;;;2.00;;
62050;SDS011;48008;51.204;6.766;2023-03-24T06:06:49;11.07;;;2.20;;
62050;SDS011;48008;51.204;6.766;2023-03-24T06:09:20;9.55;;;1.92;;
62050;SDS011;48008;51.204;6.766;2023-03-24T06:11:48;8.45;;;1.98;;
62050;SDS011;48008;51.204;6.766;2023-03-24T06:14:15;10.40;;;2.25;;
62050;SDS011;48008;51.204;6.766;2023-03-24T06:16:54;12.30;;;1.90;;
62050;SDS011;48008;51.204;6.766;2023-03-24T06:19:25;14.07;;;2.13;;
62050;SDS011;48008;51.204;6.766;2023-03-24T06:22:05;12.38;;;2.13;;
62050;SDS011;48008;51.204;6.766;2023-03-24T06:24:36;13.25;;;2.42;;
62050;SDS011;48008;51.204;6.766;2023-03-24T06:27:07;13.10;;;2.00;;
62050;SDS011;48008;51.204;6.766;2023-03-24T06:29:35;15.48;;;2.40;;
62050;SDS011;48008;51.204;6.766;2023-03-24T06:32:02;14.52;;;2.38;;
62050;SDS011;48008;51.204;6.766;2023-03-24T06:34:36;13.10;;;2.97;;
62050;SDS011;48008;51.204;6.766;2023-03-24T06:37:15;13.88;;;2.40;;
62050;SDS011;48008;51.204;6.766;2023-03-24T06:39:42;9.93;;;2.10;;
62050;SDS011;48008;51.204;6.766;2023-03-24T06:42:10;16.83;;;2.72;;
62050;SDS011;48008;51.204;6.766;2023-03-24T06:44:38;14.95;;;2.45;;
62050;SDS011;48008;51.204;6.766;2023-03-24T06:47:04;15.40;;;2.50;;
62050;SDS011;48008;51.204;6.766;2023-03-24T06:49:32;13.00;;;2.13;;
62050;SDS011;48008;51.204;6.766;2023-03-24T06:52:00;13.23;;;2.90;;
62050;SDS011;48008;51.204;6.766;2023-03-24T06:54:28;14.82;;;2.38;;
62050;SDS011;48008;51.204;6.766;2023-03-24T06:56:58;15.75;;;2.30;;
62050;SDS011;48008;51.204;6.766;2023-03-24T06:59:32;18.92;;;2.35;;
62050;SDS011;48008;51.204;6.766;2023-03-24T07:02:00;10.27;;;2.15;;
62050;SDS011;48008;51.204;6.766;2023-03-24T07:04:30;10.55;;;2.20;;
62050;SDS011;48008;51.204;6.766;2023-03-24T07:07:09;14.30;;;2.13;;
62050;SDS011;48008;51.204;6.766;2023-03-24T07:10:13;12.88;;;2.45;;
62050;SDS011;48008;51.204;6.766;2023-03-24T07:12:40;11.57;;;2.33;;
62050;SDS011;48008;51.204;6.766;2023-03-24T07:15:07;13.40;;;2.03;;
62050;SDS011;48008;51.204;6.766;2023-03-24T07:17:35;13.45;;;2.30;;
62050;SDS011;48008;51.204;6.766;2023-03-24T07:20:10;16.17;;;2.38;;
62050;SDS011;48008;51.204;6.766;2023-03-24T07:22:48;12.07;;;2.30;;
62050;SDS011;48008;51.204;6.766;2023-03-24T07:25:35;10.23;;;2.10;;
62050;SDS011;48008;51.204;6.766;2023-03-24T07:28:12;15.50;;;2.28;;
62050;SDS011;48008;51.204;6.766;2023-03-24T07:30:39;15.20;;;2.30;;
62050;SDS011;48008;51.204;6.766;2023-03-24T07:33:07;14.27;;;2.83;;
62050;SDS011;48008;51.204;6.766;2023-03-24T07:35:38;13.23;;;2.67;;
62050;SDS011;48008;51.204;6.766;2023-03-24T07:38:06;15.40;;;3.08;;
62050;SDS011;48008;51.204;6.766;2023-03-24T07:40:33;21.83;;;4.65;;
62050;SDS011;48008;51.204;6.766;2023-03-24T07:43:02;21.13;;;9.02;;
62050;SDS011;48008;51.204;6.766;2023-03-24T07:45:40;16.50;;;4.13;;
62050;SDS011;48008;51.204;6.766;2023-03-24T07:48:06;18.27;;;4.22;;
62050;SDS011;48008;51.204;6.766;2023-03-24T07:50:35;24.90;;;3.97;;
62050;SDS011;48008;51.204;6.766;2023-03-24T07:53:09;14.57;;;3.00;;
62050;SDS011;48008;51.204;6.766;2023-03-24T07:55:37;20.95;;;4.15;;
62050;SDS011;48008;51.204;6.766;2023-03-24T07:58:12;20.83;;;3.60;;
62050;SDS011;48008;51.204;6.766;2023-03-24T08:00:47;19.45;;;4.00;;
62050;SDS011;48008;51.204;6.766;2023-03-24T08:03:23;16.42;;;3.45;;
62050;SDS011;48008;51.204;6.766;2023-03-24T08:06:12;20.00;;;4.35;;
62050;SDS011;48008;51.204;6.766;2023-03-24T08:08:48;17.00;;;3.95;;
62050;SDS011;48008;51.204;6.766;2023-03-24T08:11:16;17.95;;;3.90;;
62050;SDS011;48008;51.204;6.766;2023-03-24T08:13:43;18.50;;;3.85;;
62050;SDS011;48008;51.204;6.766;2023-03-24T08:16:10;21.30;;;4.38;;
62050;SDS011;48008;51.204;6.766;2023-03-24T08:18:37;22.25;;;5.75;;
62050;SDS011;48008;51.204;6.766;2023-03-24T08:21:03;41.20;;;15.70;;
62050;SDS011;48008;51.204;6.766;2023-03-24T08:23:31;27.27;;;6.18;;
62050;SDS011;48008;51.204;6.766;2023-03-24T08:25:57;20.20;;;3.72;;
62050;SDS011;48008;51.204;6.766;2023-03-24T08:28:24;19.73;;;4.07;;
62050;SDS011;48008;51.204;6.766;2023-03-24T08:30:51;18.33;;;3.88;;
62050;SDS011;48008;51.204;6.766;2023-03-24T08:33:18;20.58;;;4.00;;
62050;SDS011;48008;51.204;6.766;2023-03-24T08:35:46;19.65;;;5.63;;
62050;SDS011;48008;51.204;6.766;2023-03-24T08:38:13;16.23;;;3.50;;
62050;SDS011;48008;51.204;6.766;2023-03-24T08:40:45;19.08;;;4.03;;
62050;SDS011;48008;51.204;6.766;2023-03-24T08:43:14;19.13;;;3.15;;
62050;SDS011;48008;51.204;6.766;2023-03-24T08:45:41;18.17;;;3.45;;
62050;SDS011;48008;51.204;6.766;2023-03-24T08:48:08;22.08;;;5.45;;
62050;SDS011;48008;51.204;6.766;2023-03-24T08:50:37;16.20;;;3.08;;
62050;SDS011;48008;51.204;6.766;2023-03-24T08:53:06;20.92;;;3.38;;
62050;SDS011;48008;51.204;6.766;2023-03-24T08:55:34;13.10;;;2.47;;
62050;SDS011;48008;51.204;6.766;2023-03-24T08:58:03;21.50;;;3.47;;
62050;SDS011;48008;51.204;6.766;2023-03-24T09:00:32;18.75;;;3.10;;
62050;SDS011;48008;51.204;6.766;2023-03-24T09:03:00;20.52;;;2.53;;
62050;SDS011;48008;51.204;6.766;2023-03-24T09:05:27;20.95;;;3.70;;
62050;SDS011;48008;51.204;6.766;2023-03-24T09:07:58;12.43;;;2.38;;
62050;SDS011;48008;51.204;6.766;2023-03-24T09:10:27;19.58;;;3.88;;
62050;SDS011;48008;51.204;6.766;2023-03-24T09:12:53;22.13;;;3.15;;
62050;SDS011;48008;51.204;6.766;2023-03-24T09:15:20;19.98;;;3.53;;
62050;SDS011;48008;51.204;6.766;2023-03-24T09:17:47;19.17;;;3.65;;
62050;SDS011;48008;51.204;6.766;2023-03-24T09:20:14;21.98;;;2.92;;
62050;SDS011;48008;51.204;6.766;2023-03-24T09:22:44;20.48;;;3.45;;
62050;SDS011;48008;51.204;6.766;2023-03-24T09:25:14;17.05;;;3.22;;
62050;SDS011;48008;51.204;6.766;2023-03-24T09:27:45;18.30;;;3.30;;
62050;SDS011;48008;51.204;6.766;2023-03-24T09:30:13;20.92;;;3.20;;
62050;SDS011;48008;51.204;6.766;2023-03-24T09:32:41;20.92;;;4.07;;
62050;SDS011;48008;51.204;6.766;2023-03-24T09:35:09;19.95;;;3.78;;
62050;SDS011;48008;51.204;6.766;2023-03-24T09:37:36;17.65;;;4.15;;
62050;SDS011;48008;51.204;6.766;2023-03-24T09:40:04;19.02;;;3.47;;
62050;SDS011;48008;51.204;6.766;2023-03-24T09:42:36;22.63;;;3.72;;
62050;SDS011;48008;51.204;6.766;2023-03-24T09:45:11;22.70;;;4.07;;
62050;SDS011;48008;51.204;6.766;2023-03-24T09:47:44;20.05;;;4.10;;
62050;SDS011;48008;51.204;6.766;2023-03-24T09:50:23;21.60;;;4.30;;
62050;SDS011;48008;51.204;6.766;2023-03-24T09:52:54;17.75;;;3.67;;
62050;SDS011;48008;51.204;6.766;2023-03-24T09:57:55;18.17;;;3.47;;
62050;SDS011;48008;51.204;6.766;2023-03-24T10:00:27;19.33;;;3.60;;
62050;SDS011;48008;51.204;6.766;2023-03-24T10:02:58;22.00;;;3.78;;
62050;SDS011;48008;51.204;6.766;2023-03-24T10:05:38;18.55;;;3.92;;
62050;SDS011;48008;51.204;6.766;2023-03-24T10:08:17;20.80;;;3.47;;
62050;SDS011;48008;51.204;6.766;2023-03-24T10:16:53;17.55;;;3.80;;
62050;SDS011;48008;51.204;6.766;2023-03-24T10:19:41;17.77;;;3.53;;
62050;SDS011;48008;51.204;6.766;2023-03-24T10:27:50;11.43;;;3.00;;
62050;SDS011;48008;51.204;6.766;2023-03-24T10:30:27;21.35;;;4.18;;
62050;SDS011;48008;51.204;6.766;2023-03-24T10:32:57;16.80;;;3.33;;
62050;SDS011;48008;51.204;6.766;2023-03-24T10:35:25;15.73;;;3.03;;
62050;SDS011;48008;51.204;6.766;2023-03-24T10:37:57;21.60;;;3.30;;
62050;SDS011;48008;51.204;6.766;2023-03-24T10:40:29;11.35;;;2.67;;
62050;SDS011;48008;51.204;6.766;2023-03-24T10:42:58;21.85;;;3.13;;
62050;SDS011;48008;51.204;6.766;2023-03-24T10:45:28;14.98;;;3.28;;
62050;SDS011;48008;51.204;6.766;2023-03-24T10:47:59;18.73;;;3.67;;
62050;SDS011;48008;51.204;6.766;2023-03-24T10:50:28;15.68;;;3.60;;
62050;SDS011;48008;51.204;6.766;2023-03-24T10:52:58;19.95;;;2.85;;
62050;SDS011;48008;51.204;6.766;2023-03-24T10:55:28;16.05;;;3.35;;
62050;SDS011;48008;51.204;6.766;2023-03-24T10:57:58;15.23;;;2.38;;
62050;SDS011;48008;51.204;6.766;2023-03-24T11:00:26;13.25;;;2.47;;
62050;SDS011;48008;51.204;6.766;2023-03-24T11:03:03;14.68;;;2.88;;
62050;SDS011;48008;51.204;6.766;2023-03-24T11:05:34;14.43;;;3.17;;
62050;SDS011;48008;51.204;6.766;2023-03-24T11:08:35;12.90;;;2.67;;
62050;SDS011;48008;51.204;6.766;2023-03-24T11:10:54;13.13;;;2.45;;
62050;SDS011;48008;51.204;6.766;2023-03-24T11:16:13;12.75;;;2.10;;
62050;SDS011;48008;51.204;6.766;2023-03-24T11:18:59;13.25;;;2.42;;
62050;SDS011;48008;51.204;6.766;2023-03-24T11:21:29;13.50;;;2.33;;
62050;SDS011;48008;51.204;6.766;2023-03-24T11:23:58;20.83;;;2.70;;
62050;SDS011;48008;51.204;6.766;2023-03-24T11:26:30;11.30;;;2.28;;
62050;SDS011;48008;51.204;6.766;2023-03-24T11:29:01;10.98;;;2.30;;
62050;SDS011;48008;51.204;6.766;2023-03-24T11:31:33;16.77;;;2.55;;
62050;SDS011;48008;51.204;6.766;2023-03-24T11:34:06;13.43;;;2.33;;
62050;SDS011;48008;51.204;6.766;2023-03-24T11:36:43;12.18;;;2.13;;
62050;SDS011;48008;51.204;6.766;2023-03-24T11:39:18;14.85;;;2.55;;
62050;SDS011;48008;51.204;6.766;2023-03-24T11:41:51;11.48;;;2.25;;
62050;SDS011;48008;51.204;6.766;2023-03-24T11:44:32;13.45;;;2.92;;
62050;SDS011;48008;51.204;6.766;2023-03-24T11:47:12;15.80;;;2.70;;
62050;SDS011;48008;51.204;6.766;2023-03-24T11:49:45;14.77;;;2.40;;
62050;SDS011;48008;51.204;6.766;2023-03-24T11:52:21;10.70;;;2.53;;
62050;SDS011;48008;51.204;6.766;2023-03-24T11:54:51;17.50;;;2.47;;
62050;SDS011;48008;51.204;6.766;2023-03-24T11:57:24;14.88;;;2.47;;
62050;SDS011;48008;51.204;6.766;2023-03-24T12:00:11;16.40;;;2.70;;
62050;SDS011;48008;51.204;6.766;2023-03-24T12:05:50;16.13;;;2.42;;
62050;SDS011;48008;51.204;6.766;2023-03-24T12:08:29;14.65;;;2.10;;
62050;SDS011;48008;51.204;6.766;2023-03-24T12:11:11;13.60;;;2.30;;
62050;SDS011;48008;51.204;6.766;2023-03-24T12:13:45;13.30;;;2.10;;
62050;SDS011;48008;51.204;6.766;2023-03-24T12:16:48;13.90;;;2.55;;
62050;SDS011;48008;51.204;6.766;2023-03-24T12:19:25;12.95;;;2.30;;
62050;SDS011;48008;51.204;6.766;2023-03-24T12:30:53;12.82;;;2.40;;
62050;SDS011;48008;51.204;6.766;2023-03-24T12:33:41;13.25;;;2.63;;
62050;SDS011;48008;51.204;6.766;2023-03-24T12:39:07;15.00;;;2.83;;
62050;SDS011;48008;51.204;6.766;2023-03-24T12:44:32;14.25;;;2.65;;
62050;SDS011;48008;51.204;6.766;2023-03-24T12:47:21;13.93;;;2.75;;
62050;SDS011;48008;51.204;6.766;2023-03-24T12:53:23;13.50;;;2.40;;
62050;SDS011;48008;51.204;6.766;2023-03-24T12:56:04;12.80;;;2.10;;
62050;SDS011;48008;51.204;6.766;2023-03-24T12:58:40;14.95;;;2.60;;
62050;SDS011;48008;51.204;6.766;2023-03-24T13:01:22;17.13;;;2.42;;
62050;SDS011;48008;51.204;6.766;2023-03-24T13:03:57;20.75;;;2.40;;
62050;SDS011;48008;51.204;6.766;2023-03-24T13:06:33;10.73;;;2.20;;
62050;SDS011;48008;51.204;6.766;2023-03-24T13:12:11;14.77;;;2.53;;
62050;SDS011;48008;51.204;6.766;2023-03-24T13:14:49;12.02;;;2.38;;
62050;SDS011;48008;51.204;6.766;2023-03-24T13:17:27;13.38;;;2.63;;
62050;SDS011;48008;51.204;6.766;2023-03-24T13:19:58;13.50;;;2.17;;
62050;SDS011;48008;51.204;6.766;2023-03-24T13:22:27;13.95;;;2.45;;
62050;SDS011;48008;51.204;6.766;2023-03-24T13:24:55;13.02;;;2.67;;
62050;SDS011;48008;51.204;6.766;2023-03-24T13:27:24;14.65;;;2.90;;
62050;SDS011;48008;51.204;6.766;2023-03-24T13:32:51;11.32;;;2.28;;
62050;SDS011;48008;51.204;6.766;2023-03-24T13:35:32;10.75;;;2.22;;
62050;SDS011;48008;51.204;6.766;2023-03-24T13:38:24;21.38;;;2.70;;
62050;SDS011;48008;51.204;6.766;2023-03-24T13:40:59;15.15;;;1.90;;
62050;SDS011;48008;51.204;6.766;2023-03-24T13:43:31;10.63;;;2.10;;
62050;SDS011;48008;51.204;6.766;2023-03-24T13:46:01;7.22;;;1.60;;
62050;SDS011;48008;51.204;6.766;2023-03-24T13:48:49;9.52;;;2.03;;
62050;SDS011;48008;51.204;6.766;2023-03-24T13:51:21;8.65;;;1.60;;
62050;SDS011;48008;51.204;6.766;2023-03-24T13:53:58;8.27;;;1.65;;
62050;SDS011;48008;51.204;6.766;2023-03-24T13:56:51;16.48;;;1.98;;
62050;SDS011;48008;51.204;6.766;2023-03-24T13:59:24;9.02;;;1.85;;
62050;SDS011;48008;51.204;6.766;2023-03-24T14:07:41;12.60;;;2.35;;
62050;SDS011;48008;51.204;6.766;2023-03-24T14:12:54;10.98;;;2.17;;
62050;SDS011;48008;51.204;6.766;2023-03-24T14:15:39;13.93;;;2.40;;
62050;SDS011;48008;51.204;6.766;2023-03-24T14:18:13;11.95;;;2.13;;
62050;SDS011;48008;51.204;6.766;2023-03-24T14:21:00;10.82;;;1.77;;
62050;SDS011;48008;51.204;6.766;2023-03-24T14:23:33;10.63;;;2.20;;
62050;SDS011;48008;51.204;6.766;2023-03-24T14:26:05;11.20;;;2.20;;
62050;SDS011;48008;51.204;6.766;2023-03-24T14:28:37;11.13;;;3.25;;
62050;SDS011;48008;51.204;6.766;2023-03-24T14:31:08;8.98;;;2.15;;
62050;SDS011;48008;51.204;6.766;2023-03-24T14:36:28;9.52;;;1.92;;
62050;SDS011;48008;51.204;6.766;2023-03-24T14:39:05;9.85;;;1.83;;
62050;SDS011;48008;51.204;6.766;2023-03-24T14:41:44;10.95;;;2.20;;
62050;SDS011;48008;51.204;6.766;2023-03-24T14:47:19;14.40;;;2.10;;
62050;SDS011;48008;51.204;6.766;2023-03-24T14:49:53;18.80;;;2.33;;
62050;SDS011;48008;51.204;6.766;2023-03-24T14:52:54;11.50;;;2.30;;
62050;SDS011;48008;51.204;6.766;2023-03-24T14:55:15;15.70;;;2.70;;
62050;SDS011;48008;51.204;6.766;2023-03-24T15:00:18;15.70;;;2.85;;
62050;SDS011;48008;51.204;6.766;2023-03-24T15:02:50;15.05;;;2.70;;
62050;SDS011;48008;51.204;6.766;2023-03-24T15:05:37;15.50;;;2.38;;
62050;SDS011;48008;51.204;6.766;2023-03-24T15:08:09;20.23;;;4.45;;
62050;SDS011;48008;51.204;6.766;2023-03-24T15:10:53;15.95;;;2.65;;
62050;SDS011;48008;51.204;6.766;2023-03-24T15:13:30;10.30;;;2.30;;
62050;SDS011;48008;51.204;6.766;2023-03-24T15:16:20;14.57;;;2.50;;
62050;SDS011;48008;51.204;6.766;2023-03-24T15:18:52;13.52;;;2.03;;
62050;SDS011;48008;51.204;6.766;2023-03-24T15:29:41;15.32;;;2.22;;
62050;SDS011;48008;51.204;6.766;2023-03-24T15:32:25;19.20;;;3.17;;
62050;SDS011;48008;51.204;6.766;2023-03-24T15:34:57;19.83;;;3.20;;
62050;SDS011;48008;51.204;6.766;2023-03-24T15:37:35;14.00;;;2.42;;
62050;SDS011;48008;51.204;6.766;2023-03-24T15:40:38;12.52;;;1.95;;
62050;SDS011;48008;51.204;6.766;2023-03-24T15:43:03;14.07;;;2.15;;
62050;SDS011;48008;51.204;6.766;2023-03-24T15:45:36;15.00;;;2.00;;
62050;SDS011;48008;51.204;6.766;2023-03-24T15:48:15;17.98;;;2.28;;
62050;SDS011;48008;51.204;6.766;2023-03-24T15:51:16;11.73;;;1.67;;
62050;SDS011;48008;51.204;6.766;2023-03-24T15:53:38;12.70;;;1.55;;
62050;SDS011;48008;51.204;6.766;2023-03-24T15:56:23;8.05;;;1.42;;
62050;SDS011;48008;51.204;6.766;2023-03-24T15:58:54;8.95;;;1.30;;
62050;SDS011;48008;51.204;6.766;2023-03-24T16:01:24;5.72;;;1.50;;
62050;SDS011;48008;51.204;6.766;2023-03-24T16:03:52;9.05;;;1.90;;
62050;SDS011;48008;51.204;6.766;2023-03-24T16:06:24;12.30;;;2.08;;
62050;SDS011;48008;51.204;6.766;2023-03-24T16:08:57;9.88;;;2.03;;
62050;SDS011;48008;51.204;6.766;2023-03-24T16:11:27;9.77;;;1.98;;
62050;SDS011;48008;51.204;6.766;2023-03-24T16:13:54;7.00;;;1.85;;
62050;SDS011;48008;51.204;6.766;2023-03-24T16:16:26;8.00;;;1.80;;
62050;SDS011;48008;51.204;6.766;2023-03-24T16:18:54;7.18;;;1.70;;
62050;SDS011;48008;51.204;6.766;2023-03-24T16:21:26;8.98;;;1.73;;
62050;SDS011;48008;51.204;6.766;2023-03-24T16:23:55;5.90;;;1.35;;
62050;SDS011;48008;51.204;6.766;2023-03-24T16:26:24;6.95;;;1.50;;
62050;SDS011;48008;51.204;6.766;2023-03-24T16:28:53;6.97;;;1.40;;
62050;SDS011;48008;51.204;6.766;2023-03-24T16:31:24;6.80;;;1.50;;
62050;SDS011;48008;51.204;6.766;2023-03-24T16:33:56;5.28;;;1.70;;
62050;SDS011;48008;51.204;6.766;2023-03-24T16:36:23;11.57;;;3.17;;
62050;SDS011;48008;51.204;6.766;2023-03-24T16:38:52;8.68;;;1.45;;
62050;SDS011;48008;51.204;6.766;2023-03-24T16:41:20;6.85;;;1.40;;
62050;SDS011;48008;51.204;6.766;2023-03-24T16:43:47;4.43;;;1.30;;
62050;SDS011;48008;51.204;6.766;2023-03-24T16:46:15;3.75;;;1.20;;
62050;SDS011;48008;51.204;6.766;2023-03-24T16:48:46;5.65;;;1.50;;
62050;SDS011;48008;51.204;6.766;2023-03-24T16:51:14;5.07;;;1.40;;
62050;SDS011;48008;51.204;6.766;2023-03-24T16:53:42;4.85;;;1.15;;
62050;SDS011;48008;51.204;6.766;2023-03-24T16:56:12;6.20;;;2.00;;
62050;SDS011;48008;51.204;6.766;2023-03-24T16:58:41;5.35;;;1.75;;
62050;SDS011;48008;51.204;6.766;2023-03-24T17:04:06;3.92;;;1.30;;
62050;SDS011;48008;51.204;6.766;2023-03-24T17:06:38;6.80;;;1.60;;
62050;SDS011;48008;51.204;6.766;2023-03-24T17:09:07;6.93;;;1.55;;